createdAt,value
2019-04-20T00:02:06.160Z,15.00
2019-04-20T00:04:33.846Z,14.90
2019-04-20T00:07:00.301Z,14.80
2019-04-20T00:09:34.856Z,14.80
2019-04-20T00:12:10.821Z,14.90
2019-04-20T00:14:36.284Z,14.90
2019-04-20T00:17:05.181Z,14.90
2019-04-20T00:19:42.307Z,15.00
2019-04-20T00:22:14.886Z,15.00
2019-04-20T00:25:04.242Z,15.00
2019-04-20T00:27:55.576Z,15.00
2019-04-20T00:30:28.793Z,15.00
2019-04-20T00:32:49.975Z,14.90
2019-04-20T00:35:10.475Z,14.80
2019-04-20T00:37:40.269Z,14.70
2019-04-20T00:40:09.959Z,14.60
2019-04-20T00:42:46.820Z,14.40
2019-04-20T00:45:19.093Z,14.30
2019-04-20T00:47:50.937Z,14.30
2019-04-20T00:50:31.065Z,14.20
2019-04-20T00:52:59.074Z,14.10
2019-04-20T00:55:16.913Z,14.10
2019-04-20T00:57:51.878Z,13.90
2019-04-20T01:00:39.766Z,13.90
2019-04-20T01:03:01.012Z,13.90
2019-04-20T01:05:58.454Z,13.90
2019-04-20T01:08:17.112Z,13.90
2019-04-20T01:10:51.464Z,13.90
2019-04-20T01:13:22.924Z,13.80
2019-04-20T01:15:55.380Z,13.80
2019-04-20T01:18:21.337Z,13.70
2019-04-20T01:20:51.446Z,13.70
2019-04-20T01:23:24.337Z,13.70
2019-04-20T01:26:01.438Z,13.60
2019-04-20T01:28:37.492Z,13.50
2019-04-20T01:31:06.198Z,13.40
2019-04-20T01:33:41.283Z,13.40
2019-04-20T01:36:24.017Z,13.20
2019-04-20T01:38:44.806Z,13.20
2019-04-20T01:40:59.729Z,13.10
2019-04-20T01:43:29.177Z,13.20
2019-04-20T01:46:05.059Z,13.20
2019-04-20T01:48:33.963Z,13.10
2019-04-20T01:51:07.249Z,13.20
2019-04-20T01:53:56.565Z,13.10
2019-04-20T01:56:16.973Z,13.00
2019-04-20T01:59:10.214Z,13.00
2019-04-20T02:01:51.623Z,12.90
2019-04-20T02:04:27.174Z,12.80
2019-04-20T02:06:56.174Z,12.70
2019-04-20T02:09:26.020Z,12.60
2019-04-20T02:11:54.962Z,12.40
2019-04-20T02:14:32.203Z,12.40
2019-04-20T02:17:04.307Z,12.30
2019-04-20T02:19:38.085Z,12.30
2019-04-20T02:22:11.309Z,12.30
2019-04-20T02:24:29.795Z,12.30
2019-04-20T02:26:59.853Z,12.20
2019-04-20T02:29:50.707Z,12.10
2019-04-20T02:32:45.642Z,12.00
2019-04-20T02:35:03.396Z,12.00
2019-04-20T02:38:01.289Z,12.00
2019-04-20T02:40:12.705Z,12.00
2019-04-20T02:42:46.341Z,11.90
2019-04-20T02:45:17.402Z,12.10
2019-04-20T02:50:28.674Z,12.30
2019-04-20T02:52:56.913Z,12.30
2019-04-20T02:55:16.983Z,12.30
2019-04-20T02:57:53.020Z,12.40
2019-04-20T03:00:12.327Z,12.40
2019-04-20T03:02:35.878Z,12.30
2019-04-20T03:05:06.353Z,12.30
2019-04-20T03:07:35.474Z,12.30
2019-04-20T03:10:11.255Z,12.10
2019-04-20T03:12:43.861Z,12.00
2019-04-20T03:15:13.913Z,11.90
2019-04-20T03:17:51.025Z,11.80
2019-04-20T03:20:23.293Z,11.70
2019-04-20T03:23:18.790Z,11.80
2019-04-20T03:25:53.502Z,11.70
2019-04-20T03:28:19.478Z,11.60
2019-04-20T03:34:05.713Z,11.40
2019-04-20T03:36:13.099Z,11.40
2019-04-20T03:38:33.034Z,11.30
2019-04-20T03:40:56.571Z,11.20
2019-04-20T03:43:13.923Z,11.10
2019-04-20T03:45:51.800Z,11.00
2019-04-20T03:48:33.517Z,10.90
2019-04-20T03:51:08.989Z,10.90
2019-04-20T03:53:39.741Z,10.90
2019-04-20T03:56:19.099Z,10.90
2019-04-20T03:58:50.377Z,10.80
2019-04-20T04:01:35.852Z,10.80
2019-04-20T04:04:17.943Z,10.70
2019-04-20T04:06:37.358Z,10.70
2019-04-20T04:09:10.482Z,10.50
2019-04-20T04:11:46.141Z,10.60
2019-04-20T04:14:00.792Z,10.60
2019-04-20T04:16:37.446Z,10.50
2019-04-20T04:19:11.896Z,10.40
2019-04-20T04:21:46.831Z,10.30
2019-04-20T04:24:16.969Z,10.30
2019-04-20T04:26:52.643Z,10.20
2019-04-20T04:29:34.615Z,10.20
2019-04-20T04:32:06.762Z,10.20
2019-04-20T04:34:31.025Z,10.20
2019-04-20T04:37:02.125Z,10.10
2019-04-20T04:39:30.993Z,10.00
2019-04-20T04:42:10.232Z,10.00
2019-04-20T04:44:26.292Z,10.00
2019-04-20T04:46:53.499Z,9.90
2019-04-20T04:49:24.205Z,9.80
2019-04-20T04:51:55.301Z,9.90
2019-04-20T04:54:28.836Z,9.80
2019-04-20T04:56:48.753Z,9.80
2019-04-20T04:59:19.290Z,9.80
2019-04-20T05:01:51.793Z,9.80
2019-04-20T05:04:40.474Z,9.80
2019-04-20T05:07:07.292Z,9.80
2019-04-20T05:09:23.846Z,9.80
2019-04-20T05:12:00.469Z,9.70
2019-04-20T05:14:38.755Z,9.70
2019-04-20T05:17:11.644Z,9.80
2019-04-20T05:19:47.519Z,9.80
2019-04-20T05:22:22.930Z,9.90
2019-04-20T05:24:56.849Z,9.90
2019-04-20T05:27:39.216Z,10.10
2019-04-20T05:29:55.003Z,10.10
2019-04-20T05:32:39.801Z,10.20
2019-04-20T05:35:14.685Z,10.20
2019-04-20T05:37:51.307Z,10.30
2019-04-20T05:40:22.450Z,10.40
2019-04-20T05:42:54.407Z,10.50
2019-04-20T05:45:22.358Z,10.50
2019-04-20T05:47:55.429Z,10.50
2019-04-20T05:50:33.269Z,10.50
2019-04-20T05:53:06.055Z,10.60
2019-04-20T05:55:35.865Z,10.70
2019-04-20T05:58:04.773Z,10.70
2019-04-20T06:00:43.070Z,10.80
2019-04-20T06:03:06.736Z,11.00
2019-04-20T06:05:49.505Z,11.10
2019-04-20T06:08:05.399Z,11.20
2019-04-20T06:10:48.066Z,11.30
2019-04-20T06:13:16.035Z,11.40
2019-04-20T06:15:59.823Z,11.60
2019-04-20T06:18:24.235Z,11.70
2019-04-20T06:21:16.525Z,11.90
2019-04-20T06:23:41.335Z,12.10
2019-04-20T06:26:26.789Z,12.30
2019-04-20T06:28:38.758Z,12.40
2019-04-20T06:31:18.019Z,12.40
2019-04-20T06:36:58.361Z,12.60
2019-04-20T06:39:19.959Z,12.70
2019-04-20T06:44:26.490Z,13.00
2019-04-20T06:46:59.020Z,13.00
2019-04-20T06:49:32.063Z,13.20
2019-04-20T06:52:00.414Z,13.30
2019-04-20T06:54:35.871Z,13.40
2019-04-20T06:57:11.485Z,13.40
2019-04-20T06:59:57.830Z,13.50
2019-04-20T07:02:17.302Z,13.60
2019-04-20T07:07:14.583Z,13.70
2019-04-20T07:09:52.902Z,13.80
2019-04-20T07:12:13.114Z,13.90
2019-04-20T07:14:39.423Z,14.00
2019-04-20T07:17:26.987Z,14.20
2019-04-20T07:19:56.473Z,14.20
2019-04-20T07:25:01.216Z,14.40
2019-04-20T07:27:35.450Z,14.50
2019-04-20T07:30:10.727Z,14.60
2019-04-20T07:32:46.326Z,14.60
2019-04-20T07:35:08.782Z,14.70
2019-04-20T07:38:11.542Z,14.80
2019-04-20T07:40:16.321Z,14.90
2019-04-20T07:42:46.786Z,14.90
2019-04-20T07:45:21.596Z,15.00
2019-04-20T07:47:55.296Z,15.10
2019-04-20T07:50:12.882Z,15.20
2019-04-20T07:52:40.340Z,15.30
2019-04-20T07:55:33.154Z,15.40
2019-04-20T07:57:47.180Z,15.50
2019-04-20T08:00:27.903Z,15.50
2019-04-20T08:03:12.534Z,15.60
2019-04-20T08:05:34.653Z,15.70
2019-04-20T08:08:08.388Z,15.80
2019-04-20T08:10:47.387Z,15.90
2019-04-20T08:18:21.342Z,16.10
2019-04-20T08:20:52.640Z,16.20
2019-04-20T08:23:23.100Z,16.30
2019-04-20T08:25:44.465Z,16.50
2019-04-20T08:28:06.391Z,16.50
2019-04-20T08:31:00.671Z,16.70
2019-04-20T08:33:43.613Z,16.80
2019-04-20T08:36:17.009Z,16.80
2019-04-20T08:41:16.867Z,17.00
2019-04-20T08:43:57.241Z,17.10
2019-04-20T08:46:20.708Z,17.30
2019-04-20T08:48:50.959Z,17.40
2019-04-20T08:51:26.019Z,17.40
2019-04-20T08:53:51.754Z,17.30
2019-04-20T08:56:18.541Z,17.50
2019-04-20T08:58:36.592Z,17.60
2019-04-20T09:01:08.749Z,17.70
2019-04-20T09:03:51.206Z,17.70
2019-04-20T09:06:22.234Z,17.90
2019-04-20T09:08:50.831Z,18.00
2019-04-20T09:11:39.632Z,18.00
2019-04-20T09:13:48.457Z,18.20
2019-04-20T09:16:15.265Z,18.30
2019-04-20T09:18:52.518Z,18.40
2019-04-20T09:21:33.097Z,18.50
2019-04-20T09:24:17.237Z,18.50
2019-04-20T09:26:37.655Z,18.60
2019-04-20T09:29:12.671Z,18.60
2019-04-20T09:31:39.293Z,18.60
2019-04-20T09:34:15.764Z,18.70
2019-04-20T09:36:49.595Z,18.90
2019-04-20T09:39:21.424Z,18.90
2019-04-20T09:42:03.787Z,18.90
2019-04-20T09:44:20.027Z,19.10
2019-04-20T09:46:54.826Z,18.90
2019-04-20T09:49:37.802Z,19.10
2019-04-20T09:52:06.554Z,19.30
2019-04-20T09:54:41.604Z,19.50
2019-04-20T09:57:17.512Z,19.40
2019-04-20T09:59:45.159Z,19.20
2019-04-20T10:02:06.773Z,19.30
2019-04-20T10:04:27.649Z,19.50
2019-04-20T10:07:00.049Z,19.50
2019-04-20T10:09:34.439Z,19.70
2019-04-20T10:11:59.743Z,19.70
2019-04-20T10:14:29.295Z,19.90
2019-04-20T10:16:59.953Z,20.00
2019-04-20T10:19:33.670Z,20.00
2019-04-20T10:22:00.593Z,20.20
2019-04-20T10:24:30.636Z,20.20
2019-04-20T10:27:02.901Z,20.00
2019-04-20T10:29:33.611Z,20.00
2019-04-20T10:32:07.942Z,20.10
2019-04-20T10:34:34.758Z,20.00
2019-04-20T10:37:06.024Z,20.30
2019-04-20T10:39:38.401Z,20.40
2019-04-20T10:42:08.183Z,20.40
2019-04-20T10:44:38.910Z,20.50
2019-04-20T10:47:09.191Z,20.60
2019-04-20T10:49:38.937Z,20.70
2019-04-20T10:52:09.724Z,20.50
2019-04-20T10:54:40.616Z,20.70
2019-04-20T10:57:10.292Z,20.80
2019-04-20T10:59:39.777Z,21.00
2019-04-20T11:02:09.971Z,20.90
2019-04-20T11:04:40.933Z,21.00
2019-04-20T11:07:10.507Z,21.00
2019-04-20T11:09:40.741Z,21.20
2019-04-20T11:12:10.541Z,21.40
2019-04-20T11:14:44.308Z,21.40
2019-04-20T11:17:14.131Z,21.50
2019-04-20T11:19:43.631Z,21.50
2019-04-20T11:22:14.290Z,21.50
2019-04-20T11:24:44.083Z,21.70
2019-04-20T11:27:14.279Z,21.50
2019-04-20T11:29:44.415Z,21.60
2019-04-20T11:32:14.245Z,21.70
2019-04-20T11:34:45.306Z,21.70
2019-04-20T11:37:15.224Z,22.20
2019-04-20T11:39:45.283Z,22.20
2019-04-20T11:42:15.833Z,22.30
2019-04-20T11:44:46.715Z,22.30
2019-04-20T11:47:16.753Z,22.40
2019-04-20T11:49:46.469Z,22.20
2019-04-20T11:52:18.325Z,22.20
2019-04-20T11:54:48.394Z,22.30
2019-04-20T11:57:19.570Z,22.50
2019-04-20T11:59:49.141Z,22.60
2019-04-20T12:02:30.293Z,22.50
2019-04-20T12:05:13.106Z,22.50
2019-04-20T12:07:35.248Z,22.50
2019-04-20T12:10:13.160Z,22.80
2019-04-20T12:12:42.653Z,22.90
2019-04-20T12:15:10.549Z,22.80
2019-04-20T12:17:41.703Z,22.80
2019-04-20T12:20:12.213Z,22.90
2019-04-20T12:22:42.111Z,22.90
2019-04-20T12:25:12.124Z,22.90
2019-04-20T12:27:50.733Z,22.70
2019-04-20T12:30:13.328Z,22.90
2019-04-20T12:32:46.689Z,22.80
2019-04-20T12:35:16.095Z,22.70
2019-04-20T12:37:47.220Z,22.80
2019-04-20T12:40:17.984Z,22.80
2019-04-20T12:42:48.797Z,22.80
2019-04-20T12:45:21.714Z,23.10
2019-04-20T12:47:51.598Z,23.20
2019-04-20T12:50:21.890Z,23.10
2019-04-20T12:52:52.557Z,22.90
2019-04-20T12:55:22.859Z,22.80
2019-04-20T12:57:52.534Z,22.70
2019-04-20T13:00:27.697Z,22.90
2019-04-20T13:02:57.497Z,22.90
2019-04-20T13:05:27.709Z,23.20
2019-04-20T13:08:00.782Z,23.60
2019-04-20T13:10:29.587Z,23.80
2019-04-20T13:13:08.081Z,23.90
2019-04-20T13:15:40.541Z,23.80
2019-04-20T13:18:11.519Z,23.50
2019-04-20T13:20:41.843Z,23.20
2019-04-20T13:23:11.413Z,23.10
2019-04-20T13:25:41.240Z,23.20
2019-04-20T13:28:10.787Z,23.30
2019-04-20T13:30:40.228Z,23.20
2019-04-20T13:33:10.086Z,23.60
2019-04-20T13:35:40.533Z,23.70
2019-04-20T13:38:10.114Z,23.80
2019-04-20T13:40:39.823Z,23.80
2019-04-20T13:43:09.909Z,23.90
2019-04-20T13:45:39.699Z,24.00
2019-04-20T13:48:09.233Z,24.00
2019-04-20T13:50:39.818Z,23.70
2019-04-20T13:53:09.821Z,23.90
2019-04-20T13:55:40.115Z,23.90
2019-04-20T13:58:14.003Z,24.20
2019-04-20T14:00:48.117Z,24.20
2019-04-20T14:03:18.731Z,24.30
2019-04-20T14:05:50.831Z,24.10
2019-04-20T14:08:23.638Z,24.30
2019-04-20T14:10:53.438Z,24.40
2019-04-20T14:13:25.698Z,24.60
2019-04-20T14:15:55.461Z,24.80
2019-04-20T14:18:25.260Z,24.90
2019-04-20T14:20:56.188Z,25.30
2019-04-20T14:23:27.053Z,25.30
2019-04-20T14:25:57.031Z,25.30
2019-04-20T14:28:27.045Z,25.30
2019-04-20T14:30:58.134Z,25.60
2019-04-20T14:33:28.618Z,25.90
2019-04-20T14:35:59.091Z,26.30
2019-04-20T14:38:28.727Z,26.50
2019-04-20T14:41:00.078Z,26.20
2019-04-20T14:43:31.731Z,26.40
2019-04-20T14:46:00.993Z,26.40
2019-04-20T14:48:31.046Z,26.30
2019-04-20T14:51:01.544Z,26.30
2019-04-20T14:53:31.599Z,26.50
2019-04-20T14:56:01.847Z,26.30
2019-04-20T14:58:41.415Z,26.30
2019-04-20T15:01:28.201Z,26.10
2019-04-20T15:04:05.421Z,26.20
2019-04-20T15:06:29.713Z,26.50
2019-04-20T15:08:59.299Z,26.50
2019-04-20T15:11:28.775Z,26.70
2019-04-20T15:13:58.568Z,26.90
2019-04-20T15:16:28.733Z,26.90
2019-04-20T15:19:00.023Z,27.00
2019-04-20T15:21:37.737Z,27.10
2019-04-20T15:24:09.353Z,27.30
2019-04-20T15:26:40.330Z,27.30
2019-04-20T15:29:10.511Z,27.30
2019-04-20T15:31:41.958Z,27.40
2019-04-20T15:34:12.835Z,27.50
2019-04-20T15:36:44.305Z,27.70
2019-04-20T15:39:14.930Z,27.70
2019-04-20T15:41:45.313Z,27.50
2019-04-20T15:44:15.764Z,27.40
2019-04-20T15:46:45.635Z,27.40
2019-04-20T15:49:15.845Z,27.30
2019-04-20T15:51:46.045Z,27.50
2019-04-20T15:54:15.762Z,28.00
2019-04-20T15:56:52.818Z,28.10
2019-04-20T15:59:16.785Z,28.00
2019-04-20T16:01:49.289Z,27.80
2019-04-20T16:04:39.824Z,28.10
2019-04-20T16:07:08.604Z,28.80
2019-04-20T16:09:39.947Z,28.70
2019-04-20T16:12:10.928Z,28.90
2019-04-20T16:14:41.655Z,29.50
2019-04-20T16:17:12.489Z,29.80
2019-04-20T16:19:51.254Z,29.90
2019-04-20T16:22:15.513Z,30.00
2019-04-20T16:24:53.733Z,29.70
2019-04-20T16:27:31.758Z,30.20
2019-04-20T16:30:02.080Z,30.30
2019-04-20T16:32:34.363Z,31.00
2019-04-20T16:35:06.642Z,31.50
2019-04-20T16:37:36.448Z,31.80
2019-04-20T16:40:08.023Z,32.30
2019-04-20T16:42:40.957Z,32.50
2019-04-20T16:45:11.461Z,32.10
2019-04-20T16:47:42.121Z,31.80
2019-04-20T16:50:13.109Z,32.00
2019-04-20T16:52:43.297Z,31.70
2019-04-20T16:55:12.997Z,31.80
2019-04-20T16:57:44.999Z,31.60
2019-04-20T17:00:15.640Z,31.70
2019-04-20T17:02:45.461Z,32.00
2019-04-20T17:05:16.748Z,31.60
2019-04-20T17:07:48.969Z,31.50
2019-04-20T17:10:23.557Z,31.60
2019-04-20T17:12:52.012Z,31.80
2019-04-20T17:15:21.643Z,31.70
2019-04-20T17:17:52.895Z,31.70
2019-04-20T17:20:25.097Z,31.60
2019-04-20T17:22:54.249Z,31.50
2019-04-20T17:25:23.985Z,31.00
2019-04-20T17:27:55.457Z,30.60
2019-04-20T17:30:31.530Z,30.60
2019-04-20T17:33:10.224Z,30.50
2019-04-20T17:35:52.609Z,30.60
2019-04-20T17:38:11.168Z,30.40
2019-04-20T17:41:00.008Z,30.50
2019-04-20T17:43:24.547Z,29.90
2019-04-20T17:45:52.339Z,29.90
2019-04-20T17:48:23.359Z,29.80
2019-04-20T17:51:07.902Z,29.30
2019-04-20T17:53:37.450Z,29.30
2019-04-20T17:56:00.751Z,29.20
2019-04-20T17:58:34.422Z,29.10
2019-04-20T18:01:20.477Z,29.10
2019-04-20T18:04:10.820Z,28.90
2019-04-20T18:06:32.096Z,28.90
2019-04-20T18:09:02.150Z,28.40
2019-04-20T18:11:21.843Z,27.60
2019-04-20T18:13:58.357Z,27.20
2019-04-20T18:16:46.532Z,26.80
2019-04-20T18:19:08.528Z,26.40
2019-04-20T18:21:43.428Z,26.10
2019-04-20T18:24:24.186Z,25.80
2019-04-20T18:27:02.930Z,25.50
2019-04-20T18:29:38.394Z,25.30
2019-04-20T18:32:07.345Z,25.10
2019-04-20T18:34:38.638Z,24.80
2019-04-20T18:37:12.919Z,24.70
2019-04-20T18:39:46.283Z,24.50
2019-04-20T18:42:18.582Z,24.40
2019-04-20T18:45:02.592Z,24.20
2019-04-20T18:47:34.356Z,24.20
2019-04-20T18:49:53.798Z,24.00
2019-04-20T18:52:15.716Z,23.90
2019-04-20T18:54:48.439Z,23.70
2019-04-20T18:57:21.811Z,23.60
2019-04-20T18:59:52.955Z,23.60
2019-04-20T19:02:26.913Z,23.50
2019-04-20T19:04:50.539Z,23.40
2019-04-20T19:07:20.140Z,23.30
2019-04-20T19:09:53.261Z,23.20
2019-04-20T19:12:30.005Z,23.10
2019-04-20T19:15:12.039Z,23.00
2019-04-20T19:17:46.662Z,22.90
2019-04-20T19:20:20.597Z,22.90
2019-04-20T19:22:52.370Z,22.80
2019-04-20T19:25:28.141Z,22.60
2019-04-20T19:27:56.544Z,22.50
2019-04-20T19:30:35.427Z,22.40
2019-04-20T19:33:14.529Z,22.30
2019-04-20T19:35:40.591Z,22.20
2019-04-20T19:38:09.622Z,22.00
2019-04-20T19:40:42.955Z,21.90
2019-04-20T19:43:13.734Z,21.80
2019-04-20T19:45:56.929Z,21.70
2019-04-20T19:48:22.372Z,21.70
2019-04-20T19:50:59.039Z,21.50
2019-04-20T19:53:31.878Z,21.40
2019-04-20T19:55:56.622Z,21.30
2019-04-20T19:58:26.457Z,21.20
2019-04-20T20:00:55.375Z,21.00
2019-04-20T20:03:23.917Z,20.90
2019-04-20T20:05:54.816Z,20.80
2019-04-20T20:08:29.463Z,20.70
2019-04-20T20:10:59.216Z,20.60
2019-04-20T20:13:36.260Z,20.50
2019-04-20T20:16:06.017Z,20.40
2019-04-20T20:18:46.533Z,20.30
2019-04-20T20:21:15.233Z,20.20
2019-04-20T20:23:32.204Z,20.10
2019-04-20T20:26:05.071Z,20.00
2019-04-20T20:28:43.671Z,19.90
2019-04-20T20:31:17.011Z,19.80
2019-04-20T20:33:49.363Z,19.80
2019-04-20T20:36:12.762Z,19.70
2019-04-20T20:38:43.682Z,19.70
2019-04-20T20:41:19.818Z,19.60
2019-04-20T20:43:52.379Z,19.50
2019-04-20T20:46:24.027Z,19.50
2019-04-20T20:49:06.231Z,19.40
2019-04-20T20:51:41.092Z,19.30
2019-04-20T20:53:56.421Z,19.20
2019-04-20T20:56:24.397Z,19.10
2019-04-20T20:59:13.974Z,19.00
2019-04-20T21:01:48.369Z,18.90
2019-04-20T21:04:09.884Z,18.80
2019-04-20T21:06:40.260Z,18.70
2019-04-20T21:09:10.379Z,18.60
2019-04-20T21:11:42.286Z,18.60
2019-04-20T21:14:13.525Z,18.50
2019-04-20T21:16:52.207Z,18.40
2019-04-20T21:19:28.666Z,18.30
2019-04-20T21:21:55.025Z,18.20
2019-04-20T21:24:19.699Z,18.20
2019-04-20T21:26:49.651Z,18.20
2019-04-20T21:29:26.497Z,18.10
2019-04-20T21:31:57.764Z,18.10
2019-04-20T21:34:22.338Z,18.20
2019-04-20T21:36:56.168Z,18.20
2019-04-20T21:39:34.605Z,18.30
2019-04-20T21:42:03.967Z,18.30
2019-04-20T21:44:34.769Z,18.30
2019-04-20T21:46:59.916Z,18.30
2019-04-20T21:49:42.990Z,18.20
2019-04-20T21:52:03.607Z,18.10
2019-04-20T21:54:31.950Z,18.00
2019-04-20T21:57:05.769Z,18.00
2019-04-20T21:59:41.947Z,17.90
2019-04-20T22:02:12.900Z,17.80
2019-04-20T22:04:37.545Z,17.80
2019-04-20T22:07:08.082Z,17.70
2019-04-20T22:09:43.460Z,17.70
2019-04-20T22:12:09.799Z,17.70
2019-04-20T22:14:39.904Z,17.60
2019-04-20T22:17:09.757Z,17.60
2019-04-20T22:19:47.289Z,17.60
2019-04-20T22:22:25.076Z,17.60
2019-04-20T22:24:56.431Z,17.50
2019-04-20T22:27:18.544Z,17.40
2019-04-20T22:29:44.085Z,17.40
2019-04-20T22:32:17.297Z,17.30
2019-04-20T22:34:47.497Z,17.30
2019-04-20T22:37:21.986Z,17.20
2019-04-20T22:39:54.120Z,17.20
2019-04-20T22:42:22.221Z,17.10
2019-04-20T22:44:56.629Z,17.10
2019-04-20T22:47:27.022Z,17.00
2019-04-20T22:50:15.195Z,17.00
2019-04-20T22:52:41.069Z,16.90
2019-04-20T22:55:22.401Z,16.80
2019-04-20T22:57:41.927Z,16.80
2019-04-20T23:00:06.786Z,16.70
2019-04-20T23:02:31.162Z,16.60
2019-04-20T23:05:00.976Z,16.60
2019-04-20T23:07:32.715Z,16.50
2019-04-20T23:10:04.763Z,16.40
2019-04-20T23:12:33.941Z,16.30
2019-04-20T23:15:04.843Z,16.30
2019-04-20T23:17:40.018Z,16.20
2019-04-20T23:20:13.293Z,16.20
2019-04-20T23:22:42.274Z,16.10
2019-04-20T23:25:09.193Z,16.10
2019-04-20T23:27:40.333Z,16.00
2019-04-20T23:30:19.440Z,15.90
2019-04-20T23:32:42.178Z,15.90
2019-04-20T23:35:18.152Z,15.80
2019-04-20T23:37:46.334Z,15.80
2019-04-20T23:40:16.790Z,15.80
2019-04-20T23:42:57.879Z,15.70
2019-04-20T23:45:38.751Z,15.70
2019-04-20T23:48:23.674Z,15.60
2019-04-20T23:51:08.288Z,15.60
2019-04-20T23:53:37.182Z,15.60
2019-04-20T23:55:57.482Z,15.50
2019-04-20T23:58:30.976Z,15.50
